sensor_id;sensor_type;location;lat;lon;timestamp;P1;durP1;ratioP1;P2;durP2;ratioP2
4933;SDS011;2482;49.154;8.254;2022-12-07T00:01:40;6.57;;;4.37;;
4933;SDS011;2482;49.154;8.254;2022-12-07T00:04:10;6.13;;;5.00;;
4933;SDS011;2482;49.154;8.254;2022-12-07T00:06:44;5.90;;;4.90;;
4933;SDS011;2482;49.154;8.254;2022-12-07T00:09:18;6.67;;;5.30;;
4933;SDS011;2482;49.154;8.254;2022-12-07T00:11:47;6.37;;;5.10;;
4933;SDS011;2482;49.154;8.254;2022-12-07T00:14:17;7.23;;;5.10;;
4933;SDS011;2482;49.154;8.254;2022-12-07T00:16:45;10.47;;;6.90;;
4933;SDS011;2482;49.154;8.254;2022-12-07T00:19:12;9.90;;;7.00;;
4933;SDS011;2482;49.154;8.254;2022-12-07T00:21:40;9.47;;;6.07;;
4933;SDS011;2482;49.154;8.254;2022-12-07T00:24:08;8.07;;;6.50;;
4933;SDS011;2482;49.154;8.254;2022-12-07T00:26:37;8.73;;;5.27;;
4933;SDS011;2482;49.154;8.254;2022-12-07T00:29:08;6.53;;;5.33;;
4933;SDS011;2482;49.154;8.254;2022-12-07T00:31:42;5.33;;;4.57;;
4933;SDS011;2482;49.154;8.254;2022-12-07T00:34:15;4.93;;;4.07;;
4933;SDS011;2482;49.154;8.254;2022-12-07T00:36:45;4.07;;;3.67;;
4933;SDS011;2482;49.154;8.254;2022-12-07T00:39:12;4.80;;;4.30;;
4933;SDS011;2482;49.154;8.254;2022-12-07T00:41:39;5.03;;;3.87;;
4933;SDS011;2482;49.154;8.254;2022-12-07T00:44:06;3.50;;;3.20;;
4933;SDS011;2482;49.154;8.254;2022-12-07T00:46:33;4.00;;;3.03;;
4933;SDS011;2482;49.154;8.254;2022-12-07T00:49:00;6.80;;;4.40;;
4933;SDS011;2482;49.154;8.254;2022-12-07T00:51:27;7.93;;;4.70;;
4933;SDS011;2482;49.154;8.254;2022-12-07T00:53:54;4.83;;;4.33;;
4933;SDS011;2482;49.154;8.254;2022-12-07T00:56:22;7.07;;;5.10;;
4933;SDS011;2482;49.154;8.254;2022-12-07T00:59:10;5.23;;;4.40;;
4933;SDS011;2482;49.154;8.254;2022-12-07T01:01:42;7.00;;;3.80;;
4933;SDS011;2482;49.154;8.254;2022-12-07T01:04:09;5.87;;;4.80;;
4933;SDS011;2482;49.154;8.254;2022-12-07T01:06:36;5.43;;;4.90;;
4933;SDS011;2482;49.154;8.254;2022-12-07T01:09:04;6.40;;;4.70;;
4933;SDS011;2482;49.154;8.254;2022-12-07T01:11:32;5.10;;;4.43;;
4933;SDS011;2482;49.154;8.254;2022-12-07T01:13:59;8.23;;;5.10;;
4933;SDS011;2482;49.154;8.254;2022-12-07T01:16:28;6.80;;;5.70;;
4933;SDS011;2482;49.154;8.254;2022-12-07T01:18:57;9.20;;;6.23;;
4933;SDS011;2482;49.154;8.254;2022-12-07T01:21:27;10.60;;;6.40;;
4933;SDS011;2482;49.154;8.254;2022-12-07T01:23:57;9.40;;;5.97;;
4933;SDS011;2482;49.154;8.254;2022-12-07T01:26:25;7.70;;;5.63;;
4933;SDS011;2482;49.154;8.254;2022-12-07T01:28:53;9.97;;;5.60;;
4933;SDS011;2482;49.154;8.254;2022-12-07T01:31:22;8.63;;;6.07;;
4933;SDS011;2482;49.154;8.254;2022-12-07T01:33:52;8.87;;;6.40;;
4933;SDS011;2482;49.154;8.254;2022-12-07T01:36:22;8.40;;;5.90;;
4933;SDS011;2482;49.154;8.254;2022-12-07T01:38:59;7.70;;;5.60;;
4933;SDS011;2482;49.154;8.254;2022-12-07T01:41:31;11.10;;;6.10;;
4933;SDS011;2482;49.154;8.254;2022-12-07T01:44:09;8.17;;;6.17;;
4933;SDS011;2482;49.154;8.254;2022-12-07T01:47:00;9.73;;;6.00;;
4933;SDS011;2482;49.154;8.254;2022-12-07T01:49:48;8.43;;;6.00;;
4933;SDS011;2482;49.154;8.254;2022-12-07T01:52:23;6.40;;;5.47;;
4933;SDS011;2482;49.154;8.254;2022-12-07T01:54:55;7.27;;;5.53;;
4933;SDS011;2482;49.154;8.254;2022-12-07T01:57:26;10.73;;;6.10;;
4933;SDS011;2482;49.154;8.254;2022-12-07T01:59:56;7.90;;;6.03;;
4933;SDS011;2482;49.154;8.254;2022-12-07T02:02:31;7.17;;;5.50;;
4933;SDS011;2482;49.154;8.254;2022-12-07T02:05:03;6.87;;;5.60;;
4933;SDS011;2482;49.154;8.254;2022-12-07T02:07:32;7.17;;;5.53;;
4933;SDS011;2482;49.154;8.254;2022-12-07T02:10:38;6.30;;;5.50;;
4933;SDS011;2482;49.154;8.254;2022-12-07T02:13:03;6.40;;;5.80;;
4933;SDS011;2482;49.154;8.254;2022-12-07T02:15:36;6.97;;;5.60;;
4933;SDS011;2482;49.154;8.254;2022-12-07T02:21:09;7.47;;;5.37;;
4933;SDS011;2482;49.154;8.254;2022-12-07T02:24:04;5.77;;;4.93;;
4933;SDS011;2482;49.154;8.254;2022-12-07T02:30:20;8.83;;;5.60;;
4933;SDS011;2482;49.154;8.254;2022-12-07T02:41:00;6.77;;;4.90;;
4933;SDS011;2482;49.154;8.254;2022-12-07T02:43:33;6.17;;;4.70;;
4933;SDS011;2482;49.154;8.254;2022-12-07T02:46:09;7.30;;;6.00;;
4933;SDS011;2482;49.154;8.254;2022-12-07T02:48:42;5.90;;;5.30;;
4933;SDS011;2482;49.154;8.254;2022-12-07T02:51:10;9.23;;;6.00;;
4933;SDS011;2482;49.154;8.254;2022-12-07T02:53:39;7.23;;;5.30;;
4933;SDS011;2482;49.154;8.254;2022-12-07T03:13:44;9.70;;;6.47;;
4933;SDS011;2482;49.154;8.254;2022-12-07T03:16:37;10.20;;;7.10;;
4933;SDS011;2482;49.154;8.254;2022-12-07T03:19:13;9.43;;;6.80;;
4933;SDS011;2482;49.154;8.254;2022-12-07T03:21:45;7.60;;;6.83;;
4933;SDS011;2482;49.154;8.254;2022-12-07T03:24:18;9.33;;;7.10;;
4933;SDS011;2482;49.154;8.254;2022-12-07T03:27:05;10.10;;;7.90;;
4933;SDS011;2482;49.154;8.254;2022-12-07T03:29:54;9.30;;;6.90;;
4933;SDS011;2482;49.154;8.254;2022-12-07T03:35:22;8.57;;;6.07;;
4933;SDS011;2482;49.154;8.254;2022-12-07T03:40:58;9.93;;;6.83;;
4933;SDS011;2482;49.154;8.254;2022-12-07T03:43:32;9.30;;;6.97;;
4933;SDS011;2482;49.154;8.254;2022-12-07T03:49:04;9.17;;;7.00;;
4933;SDS011;2482;49.154;8.254;2022-12-07T03:51:43;9.47;;;7.17;;
4933;SDS011;2482;49.154;8.254;2022-12-07T03:54:58;8.60;;;6.30;;
4933;SDS011;2482;49.154;8.254;2022-12-07T03:57:47;7.83;;;6.57;;
4933;SDS011;2482;49.154;8.254;2022-12-07T04:00:19;11.17;;;7.70;;
4933;SDS011;2482;49.154;8.254;2022-12-07T04:02:46;8.80;;;6.50;;
4933;SDS011;2482;49.154;8.254;2022-12-07T04:05:13;8.97;;;6.10;;
4933;SDS011;2482;49.154;8.254;2022-12-07T04:07:40;8.63;;;6.10;;
4933;SDS011;2482;49.154;8.254;2022-12-07T04:10:08;8.60;;;6.60;;
4933;SDS011;2482;49.154;8.254;2022-12-07T04:12:35;9.27;;;6.20;;
4933;SDS011;2482;49.154;8.254;2022-12-07T04:15:03;8.83;;;6.77;;
4933;SDS011;2482;49.154;8.254;2022-12-07T04:17:31;8.43;;;6.40;;
4933;SDS011;2482;49.154;8.254;2022-12-07T04:19:58;8.93;;;6.27;;
4933;SDS011;2482;49.154;8.254;2022-12-07T04:22:26;7.73;;;5.80;;
4933;SDS011;2482;49.154;8.254;2022-12-07T04:24:53;7.07;;;5.57;;
4933;SDS011;2482;49.154;8.254;2022-12-07T04:27:19;6.93;;;5.80;;
4933;SDS011;2482;49.154;8.254;2022-12-07T04:29:46;8.00;;;6.00;;
4933;SDS011;2482;49.154;8.254;2022-12-07T04:32:13;8.10;;;6.00;;
4933;SDS011;2482;49.154;8.254;2022-12-07T04:34:40;8.40;;;5.90;;
4933;SDS011;2482;49.154;8.254;2022-12-07T04:37:07;9.50;;;6.47;;
4933;SDS011;2482;49.154;8.254;2022-12-07T04:39:34;8.20;;;5.77;;
4933;SDS011;2482;49.154;8.254;2022-12-07T04:42:01;7.27;;;5.90;;
4933;SDS011;2482;49.154;8.254;2022-12-07T04:44:28;6.80;;;5.30;;
4933;SDS011;2482;49.154;8.254;2022-12-07T04:46:56;8.30;;;5.70;;
4933;SDS011;2482;49.154;8.254;2022-12-07T04:49:24;7.27;;;5.73;;
4933;SDS011;2482;49.154;8.254;2022-12-07T04:51:51;9.37;;;6.20;;
4933;SDS011;2482;49.154;8.254;2022-12-07T04:54:18;9.67;;;6.40;;
4933;SDS011;2482;49.154;8.254;2022-12-07T04:56:45;6.83;;;5.20;;
4933;SDS011;2482;49.154;8.254;2022-12-07T04:59:13;12.27;;;5.97;;
4933;SDS011;2482;49.154;8.254;2022-12-07T05:01:41;7.40;;;6.00;;
4933;SDS011;2482;49.154;8.254;2022-12-07T05:04:09;8.17;;;5.67;;
4933;SDS011;2482;49.154;8.254;2022-12-07T05:06:36;8.13;;;6.33;;
4933;SDS011;2482;49.154;8.254;2022-12-07T05:09:03;8.50;;;5.90;;
4933;SDS011;2482;49.154;8.254;2022-12-07T05:11:31;9.57;;;6.83;;
4933;SDS011;2482;49.154;8.254;2022-12-07T05:14:05;7.67;;;5.83;;
4933;SDS011;2482;49.154;8.254;2022-12-07T05:16:43;8.10;;;6.50;;
4933;SDS011;2482;49.154;8.254;2022-12-07T05:19:12;7.70;;;6.20;;
4933;SDS011;2482;49.154;8.254;2022-12-07T05:21:39;8.57;;;6.27;;
4933;SDS011;2482;49.154;8.254;2022-12-07T05:24:07;9.07;;;6.50;;
4933;SDS011;2482;49.154;8.254;2022-12-07T05:26:36;8.80;;;6.60;;
4933;SDS011;2482;49.154;8.254;2022-12-07T05:29:03;8.70;;;6.23;;
4933;SDS011;2482;49.154;8.254;2022-12-07T05:31:31;8.57;;;6.07;;
4933;SDS011;2482;49.154;8.254;2022-12-07T05:33:58;6.87;;;5.70;;
4933;SDS011;2482;49.154;8.254;2022-12-07T05:36:25;8.60;;;6.20;;
4933;SDS011;2482;49.154;8.254;2022-12-07T05:38:54;7.83;;;5.90;;
4933;SDS011;2482;49.154;8.254;2022-12-07T05:41:21;9.37;;;6.00;;
4933;SDS011;2482;49.154;8.254;2022-12-07T05:44:07;11.83;;;5.73;;
4933;SDS011;2482;49.154;8.254;2022-12-07T05:46:34;9.27;;;6.77;;
4933;SDS011;2482;49.154;8.254;2022-12-07T05:49:01;7.40;;;6.17;;
4933;SDS011;2482;49.154;8.254;2022-12-07T05:51:28;8.80;;;6.40;;
4933;SDS011;2482;49.154;8.254;2022-12-07T05:53:55;9.60;;;6.20;;
4933;SDS011;2482;49.154;8.254;2022-12-07T05:56:22;9.60;;;6.83;;
4933;SDS011;2482;49.154;8.254;2022-12-07T05:58:49;9.47;;;6.53;;
4933;SDS011;2482;49.154;8.254;2022-12-07T06:01:34;9.13;;;6.50;;
4933;SDS011;2482;49.154;8.254;2022-12-07T06:04:01;8.83;;;6.37;;
4933;SDS011;2482;49.154;8.254;2022-12-07T06:06:28;10.40;;;7.20;;
4933;SDS011;2482;49.154;8.254;2022-12-07T06:08:55;11.80;;;7.20;;
4933;SDS011;2482;49.154;8.254;2022-12-07T06:11:22;10.40;;;7.10;;
4933;SDS011;2482;49.154;8.254;2022-12-07T06:14:08;11.30;;;7.10;;
4933;SDS011;2482;49.154;8.254;2022-12-07T06:16:35;11.87;;;6.93;;
4933;SDS011;2482;49.154;8.254;2022-12-07T06:19:02;10.27;;;7.43;;
4933;SDS011;2482;49.154;8.254;2022-12-07T06:21:29;13.13;;;7.80;;
4933;SDS011;2482;49.154;8.254;2022-12-07T06:23:56;12.67;;;8.27;;
4933;SDS011;2482;49.154;8.254;2022-12-07T06:26:23;13.40;;;8.10;;
4933;SDS011;2482;49.154;8.254;2022-12-07T06:28:50;14.17;;;9.67;;
4933;SDS011;2482;49.154;8.254;2022-12-07T06:31:17;16.40;;;10.07;;
4933;SDS011;2482;49.154;8.254;2022-12-07T06:33:44;13.80;;;8.00;;
4933;SDS011;2482;49.154;8.254;2022-12-07T06:36:11;11.47;;;7.40;;
4933;SDS011;2482;49.154;8.254;2022-12-07T06:38:38;9.30;;;7.07;;
4933;SDS011;2482;49.154;8.254;2022-12-07T06:41:07;10.73;;;8.60;;
4933;SDS011;2482;49.154;8.254;2022-12-07T06:43:34;10.73;;;7.47;;
4933;SDS011;2482;49.154;8.254;2022-12-07T06:46:01;10.87;;;7.40;;
4933;SDS011;2482;49.154;8.254;2022-12-07T06:48:30;10.80;;;7.50;;
4933;SDS011;2482;49.154;8.254;2022-12-07T06:50:57;10.03;;;6.53;;
4933;SDS011;2482;49.154;8.254;2022-12-07T06:53:24;9.43;;;7.33;;
4933;SDS011;2482;49.154;8.254;2022-12-07T06:55:51;11.20;;;8.00;;
4933;SDS011;2482;49.154;8.254;2022-12-07T06:58:18;10.80;;;7.67;;
4933;SDS011;2482;49.154;8.254;2022-12-07T07:00:45;9.90;;;7.53;;
4933;SDS011;2482;49.154;8.254;2022-12-07T07:03:12;11.80;;;7.87;;
4933;SDS011;2482;49.154;8.254;2022-12-07T07:05:39;12.90;;;9.20;;
4933;SDS011;2482;49.154;8.254;2022-12-07T07:08:06;12.90;;;8.17;;
4933;SDS011;2482;49.154;8.254;2022-12-07T07:10:49;11.77;;;8.70;;
4933;SDS011;2482;49.154;8.254;2022-12-07T07:13:17;13.87;;;8.50;;
4933;SDS011;2482;49.154;8.254;2022-12-07T07:15:43;11.87;;;7.93;;
4933;SDS011;2482;49.154;8.254;2022-12-07T07:18:11;10.70;;;8.27;;
4933;SDS011;2482;49.154;8.254;2022-12-07T07:20:38;11.20;;;7.80;;
4933;SDS011;2482;49.154;8.254;2022-12-07T07:23:05;11.57;;;8.37;;
4933;SDS011;2482;49.154;8.254;2022-12-07T07:25:32;10.80;;;9.10;;
4933;SDS011;2482;49.154;8.254;2022-12-07T07:27:59;11.47;;;7.83;;
4933;SDS011;2482;49.154;8.254;2022-12-07T07:30:26;12.13;;;8.73;;
4933;SDS011;2482;49.154;8.254;2022-12-07T07:32:57;12.87;;;8.37;;
4933;SDS011;2482;49.154;8.254;2022-12-07T07:35:26;12.73;;;8.60;;
4933;SDS011;2482;49.154;8.254;2022-12-07T07:37:55;10.97;;;8.43;;
4933;SDS011;2482;49.154;8.254;2022-12-07T07:40:22;11.10;;;8.33;;
4933;SDS011;2482;49.154;8.254;2022-12-07T07:42:51;12.73;;;8.37;;
4933;SDS011;2482;49.154;8.254;2022-12-07T07:45:20;11.70;;;7.97;;
4933;SDS011;2482;49.154;8.254;2022-12-07T07:47:48;11.50;;;8.00;;
4933;SDS011;2482;49.154;8.254;2022-12-07T07:50:16;12.33;;;8.43;;
4933;SDS011;2482;49.154;8.254;2022-12-07T07:52:44;11.47;;;7.93;;
4933;SDS011;2482;49.154;8.254;2022-12-07T07:55:11;12.50;;;8.53;;
4933;SDS011;2482;49.154;8.254;2022-12-07T07:57:39;11.57;;;8.40;;
4933;SDS011;2482;49.154;8.254;2022-12-07T08:00:09;11.97;;;8.60;;
4933;SDS011;2482;49.154;8.254;2022-12-07T08:02:39;10.60;;;8.00;;
4933;SDS011;2482;49.154;8.254;2022-12-07T08:05:09;14.47;;;8.80;;
4933;SDS011;2482;49.154;8.254;2022-12-07T08:07:38;13.83;;;9.17;;
4933;SDS011;2482;49.154;8.254;2022-12-07T08:10:06;15.47;;;8.70;;
4933;SDS011;2482;49.154;8.254;2022-12-07T08:12:36;11.30;;;8.80;;
4933;SDS011;2482;49.154;8.254;2022-12-07T08:15:27;13.37;;;7.90;;
4933;SDS011;2482;49.154;8.254;2022-12-07T08:17:57;14.80;;;8.73;;
4933;SDS011;2482;49.154;8.254;2022-12-07T08:20:24;12.83;;;9.17;;
4933;SDS011;2482;49.154;8.254;2022-12-07T08:22:51;13.60;;;9.37;;
4933;SDS011;2482;49.154;8.254;2022-12-07T08:25:19;13.37;;;8.97;;
4933;SDS011;2482;49.154;8.254;2022-12-07T08:27:47;12.23;;;8.23;;
4933;SDS011;2482;49.154;8.254;2022-12-07T08:30:14;13.67;;;9.40;;
4933;SDS011;2482;49.154;8.254;2022-12-07T08:32:42;12.60;;;8.50;;
4933;SDS011;2482;49.154;8.254;2022-12-07T08:35:11;11.17;;;8.47;;
4933;SDS011;2482;49.154;8.254;2022-12-07T08:37:39;14.47;;;9.77;;
4933;SDS011;2482;49.154;8.254;2022-12-07T08:40:07;12.50;;;9.17;;
4933;SDS011;2482;49.154;8.254;2022-12-07T08:42:47;11.47;;;7.90;;
4933;SDS011;2482;49.154;8.254;2022-12-07T08:45:16;10.47;;;8.57;;
4933;SDS011;2482;49.154;8.254;2022-12-07T08:48:10;10.20;;;7.70;;
4933;SDS011;2482;49.154;8.254;2022-12-07T08:50:40;10.63;;;8.03;;
4933;SDS011;2482;49.154;8.254;2022-12-07T08:53:14;9.97;;;7.20;;
4933;SDS011;2482;49.154;8.254;2022-12-07T08:55:42;11.90;;;8.63;;
4933;SDS011;2482;49.154;8.254;2022-12-07T08:58:13;12.67;;;8.40;;
4933;SDS011;2482;49.154;8.254;2022-12-07T09:00:40;12.50;;;8.93;;
4933;SDS011;2482;49.154;8.254;2022-12-07T09:03:07;11.67;;;8.77;;
4933;SDS011;2482;49.154;8.254;2022-12-07T09:05:34;12.27;;;8.50;;
4933;SDS011;2482;49.154;8.254;2022-12-07T09:08:01;13.30;;;8.60;;
4933;SDS011;2482;49.154;8.254;2022-12-07T09:10:28;11.70;;;7.80;;
4933;SDS011;2482;49.154;8.254;2022-12-07T09:12:56;12.93;;;8.60;;
4933;SDS011;2482;49.154;8.254;2022-12-07T09:15:27;11.30;;;8.47;;
4933;SDS011;2482;49.154;8.254;2022-12-07T09:17:55;11.60;;;8.50;;
4933;SDS011;2482;49.154;8.254;2022-12-07T09:20:22;8.90;;;7.23;;
4933;SDS011;2482;49.154;8.254;2022-12-07T09:22:53;11.17;;;8.07;;
4933;SDS011;2482;49.154;8.254;2022-12-07T09:25:20;10.80;;;8.43;;
4933;SDS011;2482;49.154;8.254;2022-12-07T09:27:47;14.77;;;9.10;;
4933;SDS011;2482;49.154;8.254;2022-12-07T09:30:14;10.97;;;8.00;;
4933;SDS011;2482;49.154;8.254;2022-12-07T09:32:41;11.03;;;8.10;;
4933;SDS011;2482;49.154;8.254;2022-12-07T09:35:08;14.00;;;8.60;;
4933;SDS011;2482;49.154;8.254;2022-12-07T09:37:36;15.13;;;9.70;;
4933;SDS011;2482;49.154;8.254;2022-12-07T09:40:03;12.83;;;9.77;;
4933;SDS011;2482;49.154;8.254;2022-12-07T09:42:38;13.00;;;8.50;;
4933;SDS011;2482;49.154;8.254;2022-12-07T09:45:14;11.20;;;8.43;;
4933;SDS011;2482;49.154;8.254;2022-12-07T09:47:46;16.20;;;9.00;;
4933;SDS011;2482;49.154;8.254;2022-12-07T09:50:17;10.67;;;8.27;;
4933;SDS011;2482;49.154;8.254;2022-12-07T09:52:49;11.40;;;8.70;;
4933;SDS011;2482;49.154;8.254;2022-12-07T09:55:26;13.50;;;9.00;;
4933;SDS011;2482;49.154;8.254;2022-12-07T09:57:55;10.60;;;7.73;;
4933;SDS011;2482;49.154;8.254;2022-12-07T10:00:24;11.90;;;8.27;;
4933;SDS011;2482;49.154;8.254;2022-12-07T10:02:56;12.10;;;9.03;;
4933;SDS011;2482;49.154;8.254;2022-12-07T10:05:35;11.30;;;7.60;;
4933;SDS011;2482;49.154;8.254;2022-12-07T10:08:08;14.40;;;8.33;;
4933;SDS011;2482;49.154;8.254;2022-12-07T10:10:39;12.33;;;8.43;;
4933;SDS011;2482;49.154;8.254;2022-12-07T10:13:07;12.40;;;8.63;;
4933;SDS011;2482;49.154;8.254;2022-12-07T10:15:48;16.37;;;9.40;;
4933;SDS011;2482;49.154;8.254;2022-12-07T10:18:39;12.00;;;8.10;;
4933;SDS011;2482;49.154;8.254;2022-12-07T10:23:38;14.10;;;8.77;;
4933;SDS011;2482;49.154;8.254;2022-12-07T10:26:50;14.83;;;9.73;;
4933;SDS011;2482;49.154;8.254;2022-12-07T10:34:46;13.60;;;8.77;;
4933;SDS011;2482;49.154;8.254;2022-12-07T10:37:20;17.00;;;8.77;;
4933;SDS011;2482;49.154;8.254;2022-12-07T10:39:55;15.87;;;8.47;;
4933;SDS011;2482;49.154;8.254;2022-12-07T10:42:27;13.17;;;8.70;;
4933;SDS011;2482;49.154;8.254;2022-12-07T10:45:07;10.97;;;7.83;;
4933;SDS011;2482;49.154;8.254;2022-12-07T10:48:07;11.97;;;8.73;;
4933;SDS011;2482;49.154;8.254;2022-12-07T10:56:03;11.90;;;8.37;;
4933;SDS011;2482;49.154;8.254;2022-12-07T11:07:28;13.13;;;8.90;;
4933;SDS011;2482;49.154;8.254;2022-12-07T11:10:22;14.40;;;8.97;;
4933;SDS011;2482;49.154;8.254;2022-12-07T11:18:59;13.03;;;8.77;;
4933;SDS011;2482;49.154;8.254;2022-12-07T11:21:57;12.43;;;9.27;;
4933;SDS011;2482;49.154;8.254;2022-12-07T11:24:31;13.27;;;9.53;;
4933;SDS011;2482;49.154;8.254;2022-12-07T11:27:22;14.67;;;9.07;;
4933;SDS011;2482;49.154;8.254;2022-12-07T11:35:38;14.13;;;10.10;;
4933;SDS011;2482;49.154;8.254;2022-12-07T11:38:16;12.47;;;9.47;;
4933;SDS011;2482;49.154;8.254;2022-12-07T11:40:56;12.50;;;8.90;;
4933;SDS011;2482;49.154;8.254;2022-12-07T11:43:59;14.93;;;10.07;;
4933;SDS011;2482;49.154;8.254;2022-12-07T11:46:43;11.17;;;9.07;;
4933;SDS011;2482;49.154;8.254;2022-12-07T11:52:02;14.13;;;9.80;;
4933;SDS011;2482;49.154;8.254;2022-12-07T11:54:34;12.30;;;8.63;;
4933;SDS011;2482;49.154;8.254;2022-12-07T11:57:12;10.43;;;8.23;;
4933;SDS011;2482;49.154;8.254;2022-12-07T11:59:52;13.57;;;8.50;;
4933;SDS011;2482;49.154;8.254;2022-12-07T12:02:34;9.40;;;7.57;;
4933;SDS011;2482;49.154;8.254;2022-12-07T12:05:27;11.30;;;8.00;;
4933;SDS011;2482;49.154;8.254;2022-12-07T12:08:18;10.90;;;8.57;;
4933;SDS011;2482;49.154;8.254;2022-12-07T12:14:05;9.93;;;7.03;;
4933;SDS011;2482;49.154;8.254;2022-12-07T12:22:48;10.43;;;6.53;;
4933;SDS011;2482;49.154;8.254;2022-12-07T12:25:26;9.63;;;6.67;;
4933;SDS011;2482;49.154;8.254;2022-12-07T12:27:58;10.20;;;7.40;;
4933;SDS011;2482;49.154;8.254;2022-12-07T12:30:33;8.57;;;6.40;;
4933;SDS011;2482;49.154;8.254;2022-12-07T12:33:04;11.90;;;6.87;;
4933;SDS011;2482;49.154;8.254;2022-12-07T12:39:10;9.43;;;6.63;;
4933;SDS011;2482;49.154;8.254;2022-12-07T12:47:00;8.07;;;6.03;;
4933;SDS011;2482;49.154;8.254;2022-12-07T12:55:49;10.03;;;7.70;;
4933;SDS011;2482;49.154;8.254;2022-12-07T13:00:46;8.90;;;5.33;;
4933;SDS011;2482;49.154;8.254;2022-12-07T13:03:22;6.83;;;5.03;;
4933;SDS011;2482;49.154;8.254;2022-12-07T13:06:17;7.43;;;4.90;;
4933;SDS011;2482;49.154;8.254;2022-12-07T13:08:51;8.77;;;5.67;;
4933;SDS011;2482;49.154;8.254;2022-12-07T13:11:29;6.80;;;5.47;;
4933;SDS011;2482;49.154;8.254;2022-12-07T13:19:58;11.40;;;7.50;;
4933;SDS011;2482;49.154;8.254;2022-12-07T13:28:18;14.77;;;8.10;;
4933;SDS011;2482;49.154;8.254;2022-12-07T13:33:39;11.40;;;7.87;;
4933;SDS011;2482;49.154;8.254;2022-12-07T13:36:12;11.60;;;7.60;;
4933;SDS011;2482;49.154;8.254;2022-12-07T13:38:58;12.13;;;7.27;;
4933;SDS011;2482;49.154;8.254;2022-12-07T13:41:27;10.33;;;7.07;;
4933;SDS011;2482;49.154;8.254;2022-12-07T13:46:32;10.03;;;6.47;;
4933;SDS011;2482;49.154;8.254;2022-12-07T13:49:29;10.90;;;7.47;;
4933;SDS011;2482;49.154;8.254;2022-12-07T13:52:13;10.40;;;6.07;;
4933;SDS011;2482;49.154;8.254;2022-12-07T13:57:33;13.20;;;8.03;;
4933;SDS011;2482;49.154;8.254;2022-12-07T14:00:03;13.13;;;8.10;;
4933;SDS011;2482;49.154;8.254;2022-12-07T14:02:54;9.83;;;6.80;;
4933;SDS011;2482;49.154;8.254;2022-12-07T14:07:57;10.30;;;6.87;;
4933;SDS011;2482;49.154;8.254;2022-12-07T14:18:56;8.17;;;5.90;;
4933;SDS011;2482;49.154;8.254;2022-12-07T14:21:26;17.83;;;8.30;;
4933;SDS011;2482;49.154;8.254;2022-12-07T14:24:29;10.17;;;6.90;;
4933;SDS011;2482;49.154;8.254;2022-12-07T14:26:49;9.70;;;6.87;;
4933;SDS011;2482;49.154;8.254;2022-12-07T14:31:56;10.03;;;6.40;;
4933;SDS011;2482;49.154;8.254;2022-12-07T14:34:36;9.30;;;6.43;;
4933;SDS011;2482;49.154;8.254;2022-12-07T14:37:03;7.43;;;6.40;;
4933;SDS011;2482;49.154;8.254;2022-12-07T14:39:35;12.60;;;5.80;;
4933;SDS011;2482;49.154;8.254;2022-12-07T14:42:02;10.70;;;7.30;;
4933;SDS011;2482;49.154;8.254;2022-12-07T14:44:29;12.30;;;8.80;;
4933;SDS011;2482;49.154;8.254;2022-12-07T14:47:01;11.50;;;8.00;;
4933;SDS011;2482;49.154;8.254;2022-12-07T14:49:48;13.33;;;7.53;;
4933;SDS011;2482;49.154;8.254;2022-12-07T14:52:23;11.13;;;7.70;;
4933;SDS011;2482;49.154;8.254;2022-12-07T14:55:20;12.90;;;7.77;;
4933;SDS011;2482;49.154;8.254;2022-12-07T14:57:54;13.67;;;7.93;;
4933;SDS011;2482;49.154;8.254;2022-12-07T15:00:23;9.80;;;6.27;;
4933;SDS011;2482;49.154;8.254;2022-12-07T15:02:52;12.00;;;8.17;;
4933;SDS011;2482;49.154;8.254;2022-12-07T15:05:20;24.23;;;15.80;;
4933;SDS011;2482;49.154;8.254;2022-12-07T15:07:48;134.20;;;60.80;;
4933;SDS011;2482;49.154;8.254;2022-12-07T15:10:23;288.47;;;117.07;;
4933;SDS011;2482;49.154;8.254;2022-12-07T15:12:56;497.17;;;257.10;;
4933;SDS011;2482;49.154;8.254;2022-12-07T15:15:48;178.13;;;86.90;;
4933;SDS011;2482;49.154;8.254;2022-12-07T15:18:17;143.67;;;76.67;;
4933;SDS011;2482;49.154;8.254;2022-12-07T15:20:46;64.10;;;39.97;;
4933;SDS011;2482;49.154;8.254;2022-12-07T15:23:13;73.60;;;47.60;;
4933;SDS011;2482;49.154;8.254;2022-12-07T15:25:45;37.83;;;26.13;;
4933;SDS011;2482;49.154;8.254;2022-12-07T15:28:14;38.53;;;28.83;;
4933;SDS011;2482;49.154;8.254;2022-12-07T15:30:41;30.20;;;22.87;;
4933;SDS011;2482;49.154;8.254;2022-12-07T15:33:10;30.90;;;25.33;;
4933;SDS011;2482;49.154;8.254;2022-12-07T15:35:39;14.47;;;11.70;;
4933;SDS011;2482;49.154;8.254;2022-12-07T15:38:08;12.17;;;10.27;;
4933;SDS011;2482;49.154;8.254;2022-12-07T15:40:35;16.03;;;10.57;;
4933;SDS011;2482;49.154;8.254;2022-12-07T15:43:02;12.33;;;9.50;;
4933;SDS011;2482;49.154;8.254;2022-12-07T15:45:30;13.67;;;9.20;;
4933;SDS011;2482;49.154;8.254;2022-12-07T15:47:57;15.10;;;9.40;;
4933;SDS011;2482;49.154;8.254;2022-12-07T15:50:44;13.17;;;9.10;;
4933;SDS011;2482;49.154;8.254;2022-12-07T15:53:12;10.67;;;8.67;;
4933;SDS011;2482;49.154;8.254;2022-12-07T15:55:39;16.70;;;9.53;;
4933;SDS011;2482;49.154;8.254;2022-12-07T15:58:06;17.77;;;9.60;;
4933;SDS011;2482;49.154;8.254;2022-12-07T16:00:33;12.87;;;9.47;;
4933;SDS011;2482;49.154;8.254;2022-12-07T16:03:00;12.23;;;9.70;;
4933;SDS011;2482;49.154;8.254;2022-12-07T16:05:27;15.47;;;10.20;;
4933;SDS011;2482;49.154;8.254;2022-12-07T16:07:54;21.87;;;10.40;;
4933;SDS011;2482;49.154;8.254;2022-12-07T16:10:21;18.83;;;9.93;;
4933;SDS011;2482;49.154;8.254;2022-12-07T16:12:48;43.97;;;31.50;;
4933;SDS011;2482;49.154;8.254;2022-12-07T16:15:15;17.53;;;11.47;;
4933;SDS011;2482;49.154;8.254;2022-12-07T16:17:49;14.50;;;11.10;;
4933;SDS011;2482;49.154;8.254;2022-12-07T16:20:17;22.37;;;17.23;;
4933;SDS011;2482;49.154;8.254;2022-12-07T16:22:44;20.40;;;14.50;;
4933;SDS011;2482;49.154;8.254;2022-12-07T16:25:11;15.40;;;11.37;;
4933;SDS011;2482;49.154;8.254;2022-12-07T16:27:38;15.13;;;11.43;;
4933;SDS011;2482;49.154;8.254;2022-12-07T16:30:06;17.70;;;14.70;;
4933;SDS011;2482;49.154;8.254;2022-12-07T16:32:33;13.73;;;9.80;;
4933;SDS011;2482;49.154;8.254;2022-12-07T16:35:00;13.60;;;10.80;;
4933;SDS011;2482;49.154;8.254;2022-12-07T16:37:28;13.40;;;10.00;;
4933;SDS011;2482;49.154;8.254;2022-12-07T16:39:55;12.90;;;9.23;;
4933;SDS011;2482;49.154;8.254;2022-12-07T16:42:22;12.97;;;8.80;;
4933;SDS011;2482;49.154;8.254;2022-12-07T16:44:49;13.90;;;9.60;;
4933;SDS011;2482;49.154;8.254;2022-12-07T16:47:16;16.17;;;8.90;;
4933;SDS011;2482;49.154;8.254;2022-12-07T16:49:43;13.07;;;9.10;;
4933;SDS011;2482;49.154;8.254;2022-12-07T16:52:10;12.50;;;8.20;;
4933;SDS011;2482;49.154;8.254;2022-12-07T16:54:49;13.60;;;9.10;;
4933;SDS011;2482;49.154;8.254;2022-12-07T16:57:16;12.07;;;9.40;;
4933;SDS011;2482;49.154;8.254;2022-12-07T16:59:48;10.90;;;8.23;;
4933;SDS011;2482;49.154;8.254;2022-12-07T17:02:17;20.17;;;9.67;;
4933;SDS011;2482;49.154;8.254;2022-12-07T17:04:45;21.67;;;12.50;;
4933;SDS011;2482;49.154;8.254;2022-12-07T17:07:12;20.97;;;12.13;;
4933;SDS011;2482;49.154;8.254;2022-12-07T17:09:38;14.33;;;9.90;;
4933;SDS011;2482;49.154;8.254;2022-12-07T17:12:05;16.57;;;10.60;;
4933;SDS011;2482;49.154;8.254;2022-12-07T17:14:33;17.93;;;10.50;;
4933;SDS011;2482;49.154;8.254;2022-12-07T17:17:18;15.83;;;10.93;;
4933;SDS011;2482;49.154;8.254;2022-12-07T17:19:45;18.70;;;11.57;;
4933;SDS011;2482;49.154;8.254;2022-12-07T17:22:12;18.87;;;10.70;;
4933;SDS011;2482;49.154;8.254;2022-12-07T17:24:39;16.23;;;9.63;;
4933;SDS011;2482;49.154;8.254;2022-12-07T17:27:06;18.00;;;10.47;;
4933;SDS011;2482;49.154;8.254;2022-12-07T17:29:34;16.63;;;10.90;;
4933;SDS011;2482;49.154;8.254;2022-12-07T17:32:01;19.37;;;11.37;;
4933;SDS011;2482;49.154;8.254;2022-12-07T17:34:28;15.10;;;10.00;;
4933;SDS011;2482;49.154;8.254;2022-12-07T17:36:55;13.40;;;9.93;;
4933;SDS011;2482;49.154;8.254;2022-12-07T17:39:22;15.43;;;10.90;;
4933;SDS011;2482;49.154;8.254;2022-12-07T17:41:49;20.80;;;11.73;;
4933;SDS011;2482;49.154;8.254;2022-12-07T17:44:34;16.17;;;10.30;;
4933;SDS011;2482;49.154;8.254;2022-12-07T17:47:00;19.50;;;10.90;;
4933;SDS011;2482;49.154;8.254;2022-12-07T17:49:29;15.20;;;11.00;;
4933;SDS011;2482;49.154;8.254;2022-12-07T17:51:56;15.50;;;10.93;;